ADDS METAR Data INFO
IDs: Format: Raw Decoded Include TAF

Data at: 0449 UTC 22 Apr 2018

METAR for:KLHQ (Lancaster/Fairfield, OH, US)
Text:KLHQ 220353Z AUTO 00000KT 10SM CLR 09/M01 A3035 RMK AO2 SLP280 T00891006
Temperature: 8.9°C ( 48°F)
Dewpoint: -0.6°C ( 31°F) [RH = 51%]
Pressure (altimeter):30.35 inches Hg (1027.9 mb) [Sea level pressure: 1028.0 mb]
Winds:calm
Visibility:10 or more sm (16+ km)
Ceiling:at least 12,000 feet AGL
Clouds:sky clear below 12,000 feet AGL
QC Flag:automated observation with no human augmentation